createdAt,value
2023-03-02T00:00:34.082Z,100852.72
2023-03-02T00:05:42.062Z,100862.72
2023-03-02T00:10:47.380Z,100850.34
2023-03-02T00:15:52.674Z,100849.44
2023-03-02T00:20:58.115Z,100851.38
2023-03-02T00:26:03.358Z,100854.25
2023-03-02T00:31:08.713Z,100850.16
2023-03-02T00:36:23.246Z,100851.53
2023-03-02T00:41:28.945Z,100852.00
2023-03-02T00:46:34.502Z,100852.28
2023-03-02T00:51:40.180Z,100852.00
2023-03-02T00:56:46.307Z,100852.88
2023-03-02T01:01:59.966Z,100860.03
2023-03-02T01:07:16.752Z,100864.03
2023-03-02T01:12:21.922Z,100860.41
2023-03-02T01:17:27.257Z,100850.84
2023-03-02T01:22:33.415Z,100866.09
2023-03-02T01:27:39.133Z,100871.88
2023-03-02T01:32:44.985Z,100871.50
2023-03-02T01:37:50.272Z,100857.34
2023-03-02T01:43:27.403Z,100872.59
2023-03-02T01:48:49.867Z,100881.84
2023-03-02T01:54:20.061Z,100884.41
2023-03-02T01:59:28.217Z,100885.22
2023-03-02T02:04:35.404Z,100873.22
2023-03-02T02:09:46.594Z,100869.03
2023-03-02T02:14:52.405Z,100877.34
2023-03-02T02:20:20.047Z,100870.28
2023-03-02T02:25:58.898Z,100880.72
2023-03-02T02:31:11.959Z,100876.88
2023-03-02T02:36:43.886Z,100878.16
2023-03-02T02:41:57.837Z,100880.31
2023-03-02T02:47:20.268Z,100876.78
2023-03-02T02:52:29.610Z,100871.50
2023-03-02T02:57:35.484Z,100863.06
2023-03-02T03:02:51.776Z,100865.94
2023-03-02T03:08:11.535Z,100854.53
2023-03-02T03:13:17.816Z,100853.88
2023-03-02T03:18:26.615Z,100861.94
2023-03-02T03:23:32.266Z,100871.63
2023-03-02T03:28:37.993Z,100863.78
2023-03-02T03:33:43.692Z,100868.69
2023-03-02T03:38:49.571Z,100862.78
2023-03-02T03:43:55.494Z,100861.59
2023-03-02T03:49:01.684Z,100866.25
2023-03-02T03:54:08.944Z,100859.50
2023-03-02T03:59:23.583Z,100869.56
2023-03-02T04:04:35.782Z,100875.03
2023-03-02T04:10:10.063Z,100880.41
2023-03-02T04:15:17.613Z,100889.41
2023-03-02T04:20:27.026Z,100893.69
2023-03-02T04:25:34.064Z,100886.19
2023-03-02T04:30:45.579Z,100889.72
2023-03-02T04:35:52.107Z,100880.69
2023-03-02T04:41:00.277Z,100885.50
2023-03-02T04:46:04.562Z,100884.44
2023-03-02T04:51:18.225Z,100891.47
2023-03-02T04:56:23.159Z,100901.72
2023-03-02T05:01:27.808Z,100901.34
2023-03-02T05:06:33.666Z,100905.69
2023-03-02T05:11:38.393Z,100909.81
2023-03-02T05:16:43.975Z,100904.31
2023-03-02T05:21:48.402Z,100914.78
2023-03-02T05:26:52.679Z,100910.75
2023-03-02T05:31:57.139Z,100924.06
2023-03-02T05:37:01.555Z,100916.03
2023-03-02T05:42:06.642Z,100911.25
2023-03-02T05:47:10.835Z,100906.78
2023-03-02T05:52:15.298Z,100916.63
2023-03-02T05:57:19.629Z,100909.00
2023-03-02T06:02:23.965Z,100909.75
2023-03-02T06:07:28.247Z,100913.78
2023-03-02T06:12:32.479Z,100899.06
2023-03-02T06:17:36.876Z,100903.28
2023-03-02T06:22:46.001Z,100901.41
2023-03-02T06:27:54.676Z,100901.19
2023-03-02T06:33:00.814Z,100884.03
2023-03-02T06:38:05.092Z,100878.44
2023-03-02T06:43:12.176Z,100870.72
2023-03-02T06:48:17.021Z,100875.34
2023-03-02T06:53:23.628Z,100878.28
2023-03-02T06:58:27.797Z,100871.03
2023-03-02T07:03:32.378Z,100868.03
2023-03-02T07:08:36.793Z,100865.13
2023-03-02T07:13:41.264Z,100871.59
2023-03-02T07:18:45.531Z,100862.78
2023-03-02T07:23:49.848Z,100860.56
2023-03-02T07:28:54.074Z,100866.50
2023-03-02T07:33:58.454Z,100858.34
2023-03-02T07:39:06.440Z,100860.09
2023-03-02T07:44:10.758Z,100855.38
2023-03-02T07:49:15.317Z,100849.75
2023-03-02T07:54:19.762Z,100846.69
2023-03-02T07:59:24.190Z,100843.19
2023-03-02T08:04:28.618Z,100841.41
2023-03-02T08:09:33.298Z,100832.47
2023-03-02T08:14:38.416Z,100832.97
2023-03-02T08:19:42.589Z,100815.13
2023-03-02T08:24:46.828Z,100799.47
2023-03-02T08:29:51.004Z,100808.81
2023-03-02T08:34:55.193Z,100806.34
2023-03-02T08:39:59.482Z,100804.88
2023-03-02T08:45:03.952Z,100786.28
2023-03-02T08:50:09.029Z,100787.72
2023-03-02T08:55:14.580Z,100776.31
2023-03-02T09:00:19.514Z,100777.06
2023-03-02T09:05:23.825Z,100750.63
2023-03-02T09:10:28.225Z,100762.00
2023-03-02T09:15:32.486Z,100764.09
2023-03-02T09:20:36.740Z,100762.00
2023-03-02T09:25:41.481Z,100767.44
2023-03-02T09:30:53.622Z,100754.47
2023-03-02T09:35:58.364Z,100750.88
2023-03-02T09:41:11.958Z,100755.78
2023-03-02T09:46:16.866Z,100751.38
2023-03-02T09:51:36.843Z,100757.09
2023-03-02T09:56:46.394Z,100751.69
2023-03-02T10:02:28.297Z,100749.09
2023-03-02T10:07:36.421Z,100746.59
2023-03-02T10:13:00.934Z,100745.38
2023-03-02T10:18:43.003Z,100743.84
2023-03-02T10:23:56.721Z,100746.47
2023-03-02T10:29:26.714Z,100743.72
2023-03-02T10:34:31.743Z,100740.56
2023-03-02T10:39:36.047Z,100742.72
2023-03-02T10:44:45.744Z,100731.78
2023-03-02T10:49:51.995Z,100737.19
2023-03-02T10:55:15.792Z,100729.34
2023-03-02T11:00:28.221Z,100727.41
2023-03-02T11:05:44.981Z,100727.22
2023-03-02T11:11:01.886Z,100737.69
2023-03-02T11:16:19.136Z,100737.50
2023-03-02T11:21:36.225Z,100739.13
2023-03-02T11:26:48.196Z,100744.53
2023-03-02T11:31:57.760Z,100742.03
2023-03-02T11:37:24.591Z,100755.91
2023-03-02T11:42:34.256Z,100762.06
2023-03-02T11:47:39.230Z,100770.25
2023-03-02T11:52:48.848Z,100788.03
2023-03-02T11:57:54.458Z,100779.31
2023-03-02T12:03:03.773Z,100786.28
2023-03-02T12:08:42.231Z,100793.06
2023-03-02T12:13:50.268Z,100791.28
2023-03-02T12:18:55.327Z,100785.00
2023-03-02T12:24:01.761Z,100777.91
2023-03-02T12:29:23.588Z,100772.72
2023-03-02T12:34:38.436Z,100772.78
2023-03-02T12:39:45.608Z,100770.09
2023-03-02T12:44:59.002Z,100783.56
2023-03-02T12:50:18.253Z,100779.75
2023-03-02T12:55:22.519Z,100779.06
2023-03-02T13:00:32.222Z,100771.63
2023-03-02T13:05:37.198Z,100771.09
2023-03-02T13:10:50.613Z,100775.00
2023-03-02T13:15:58.512Z,100783.16
2023-03-02T13:21:04.685Z,100767.50
2023-03-02T13:26:08.926Z,100781.84
2023-03-02T13:31:25.923Z,100776.81
2023-03-02T13:36:41.047Z,100780.91
2023-03-02T13:41:59.881Z,100784.84
2023-03-02T13:47:05.470Z,100778.72
2023-03-02T13:52:26.462Z,100778.16
2023-03-02T13:57:32.823Z,100784.22
2023-03-02T14:02:37.151Z,100782.88
2023-03-02T14:07:41.299Z,100784.25
2023-03-02T14:12:57.728Z,100793.25
2023-03-02T14:18:02.150Z,100800.06
2023-03-02T14:23:07.638Z,100795.44
2023-03-02T14:28:20.034Z,100802.56
2023-03-02T14:33:26.008Z,100803.09
2023-03-02T14:38:31.202Z,100811.69
2023-03-02T14:43:35.376Z,100823.69
2023-03-02T14:48:39.773Z,100838.28
2023-03-02T14:53:44.094Z,100838.69
2023-03-02T14:58:48.427Z,100852.00
2023-03-02T15:03:52.722Z,100862.25
2023-03-02T15:08:59.230Z,100860.03
2023-03-02T15:14:03.558Z,100864.66
2023-03-02T15:19:08.107Z,100865.56
2023-03-02T15:24:13.685Z,100866.66
2023-03-02T15:29:19.185Z,100861.31
2023-03-02T15:34:23.432Z,100874.00
2023-03-02T15:39:27.764Z,100867.34
2023-03-02T15:44:31.988Z,100876.78
2023-03-02T15:49:36.446Z,100873.03
2023-03-02T15:54:40.822Z,100869.38
2023-03-02T15:59:45.459Z,100869.41
2023-03-02T16:04:49.649Z,100868.31
2023-03-02T16:09:53.889Z,100881.28
2023-03-02T16:14:58.297Z,100885.78
2023-03-02T16:20:03.566Z,100871.75
2023-03-02T16:25:08.897Z,100857.81
2023-03-02T16:30:13.471Z,100879.25
2023-03-02T16:35:17.695Z,100892.75
2023-03-02T16:40:22.543Z,100904.09
2023-03-02T16:45:27.615Z,100903.25
2023-03-02T16:50:32.406Z,100912.00
2023-03-02T16:55:36.956Z,100894.25
2023-03-02T17:00:43.058Z,100903.81
2023-03-02T17:05:47.396Z,100901.47
2023-03-02T17:10:51.656Z,100896.00
2023-03-02T17:15:55.945Z,100896.69
2023-03-02T17:21:01.503Z,100895.13
2023-03-02T17:26:06.200Z,100890.94
2023-03-02T17:31:10.378Z,100903.63
2023-03-02T17:36:15.935Z,100899.69
2023-03-02T17:41:20.267Z,100912.81
2023-03-02T17:46:26.617Z,100917.44
2023-03-02T17:51:34.173Z,100919.34
2023-03-02T17:56:38.459Z,100916.06
2023-03-02T18:01:44.624Z,100904.28
2023-03-02T18:06:52.439Z,100910.69
2023-03-02T18:11:58.301Z,100907.31
2023-03-02T18:17:05.355Z,100894.31
2023-03-02T18:22:09.568Z,100890.06
2023-03-02T18:27:14.016Z,100873.03
2023-03-02T18:32:18.609Z,100882.72
2023-03-02T18:37:24.180Z,100890.66
2023-03-02T18:42:30.915Z,100887.41
2023-03-02T18:47:37.284Z,100883.59
2023-03-02T18:52:41.856Z,100884.97
2023-03-02T18:57:46.783Z,100880.88
2023-03-02T19:02:51.343Z,100877.72
2023-03-02T19:07:55.678Z,100871.59
2023-03-02T19:13:00.052Z,100874.59
2023-03-02T19:18:04.497Z,100875.28
2023-03-02T19:23:08.972Z,100868.34
2023-03-02T19:28:13.707Z,100878.97
2023-03-02T19:33:18.998Z,100864.78
2023-03-02T19:38:24.530Z,100875.31
2023-03-02T19:43:29.940Z,100881.16
2023-03-02T19:48:36.175Z,100883.59
2023-03-02T19:53:41.874Z,100861.63
2023-03-02T19:58:50.845Z,100869.13
2023-03-02T20:03:57.517Z,100871.72
2023-03-02T20:09:05.952Z,100877.63
2023-03-02T20:14:10.181Z,100875.44
2023-03-02T20:19:14.910Z,100880.88
2023-03-02T20:24:19.389Z,100883.63
2023-03-02T20:29:24.160Z,100884.41
2023-03-02T20:34:28.805Z,100878.97
2023-03-02T20:39:36.527Z,100887.41
2023-03-02T20:44:40.882Z,100873.09
2023-03-02T20:49:45.440Z,100880.59
2023-03-02T20:54:50.242Z,100879.22
2023-03-02T20:59:54.632Z,100883.06
2023-03-02T21:04:59.182Z,100888.66
2023-03-02T21:10:08.452Z,100885.81
2023-03-02T21:15:14.024Z,100885.50
2023-03-02T21:20:18.946Z,100892.75
2023-03-02T21:25:24.070Z,100885.94
2023-03-02T21:30:31.849Z,100887.56
2023-03-02T21:35:36.982Z,100884.56
2023-03-02T21:40:49.616Z,100887.41
2023-03-02T21:45:54.076Z,100888.53
2023-03-02T21:50:58.547Z,100901.38
2023-03-02T21:56:02.932Z,100899.72
2023-03-02T22:01:07.407Z,100899.69
2023-03-02T22:06:38.334Z,100908.97
2023-03-02T22:11:43.324Z,100900.06
2023-03-02T22:16:48.774Z,100898.84
2023-03-02T22:21:54.650Z,100876.06
2023-03-02T22:27:03.311Z,100887.66
2023-03-02T22:32:19.091Z,100877.03
2023-03-02T22:37:30.554Z,100882.88
2023-03-02T22:42:35.776Z,100892.31
2023-03-02T22:47:42.706Z,100892.88
2023-03-02T22:52:48.820Z,100878.38
2023-03-02T22:57:54.628Z,100893.53
2023-03-02T23:03:00.068Z,100884.81
2023-03-02T23:08:25.678Z,100877.13
2023-03-02T23:13:40.652Z,100873.75
2023-03-02T23:18:48.895Z,100864.69
2023-03-02T23:23:54.756Z,100854.06
2023-03-02T23:29:00.459Z,100855.31
2023-03-02T23:34:06.234Z,100862.81
2023-03-02T23:39:12.578Z,100863.38
2023-03-02T23:44:19.802Z,100859.28
2023-03-02T23:49:25.294Z,100850.94
2023-03-02T23:54:30.748Z,100851.22
2023-03-02T23:59:36.482Z,100852.75
